Time;durP1;ratioP1;P1;durP2;ratioP2;P2;SDS_P1;SDS_P2;PMS_P1;PMS_P2;Temp;Humidity;BMP_temperature;BMP_pressure;BME280_temperature;BME280_humidity;BME280_pressure;Samples;Min_cycle;Max_cycle;Signal;HPM_P1;HPM_P2
2021/03/02 00:00:17;;;;;;;20.30;8.93;;;;;;;1.55;78.67;100202.03;4933641;29;20075;-66
2021/03/02 00:02:43;;;;;;;17.17;9.02;;;;;;;1.48;78.90;100207.69;4933963;29;20024;-70
2021/03/02 00:05:13;;;;;;;14.00;8.07;;;;;;;1.56;78.78;100201.22;4933800;29;20374;-66
2021/03/02 00:07:39;;;;;;;17.05;9.20;;;;;;;1.57;78.84;100197.84;4934779;29;20034;-67
2021/03/02 00:10:07;;;;;;;25.05;9.15;;;;;;;1.67;79.58;100199.97;4933776;29;20951;-66
2021/03/02 00:12:34;;;;;;;17.23;9.00;;;;;;;1.83;78.79;100208.25;4933455;28;20508;-66
2021/03/02 00:15:00;;;;;;;21.08;8.75;;;;;;;1.85;79.33;100204.94;4933684;28;20066;-71
2021/03/02 00:17:33;;;;;;;19.42;9.85;;;;;;;1.79;78.00;100205.59;4934009;28;20047;-66
2021/03/02 00:20:07;;;;;;;22.13;9.30;;;;;;;1.74;78.01;100207.09;4933698;29;20047;-71
2021/03/02 00:23:02;;;;;;;16.58;8.20;;;;;;;1.60;78.26;100208.19;4936452;28;20447;-70
2021/03/02 00:25:30;;;;;;;23.80;9.68;;;;;;;1.47;79.04;100205.94;4938240;28;20047;-65
2021/03/02 00:27:56;;;;;;;15.48;8.23;;;;;;;1.44;79.69;100205.81;4937807;29;20031;-66
2021/03/02 00:30:22;;;;;;;21.15;10.20;;;;;;;1.36;79.57;100212.31;4937649;28;20046;-69
2021/03/02 00:32:48;;;;;;;19.02;10.32;;;;;;;1.39;79.49;100210.72;4937486;28;20047;-71
2021/03/02 00:35:15;;;;;;;21.45;9.70;;;;;;;1.39;79.39;100214.97;4937373;29;20111;-71
2021/03/02 00:37:40;;;;;;;20.10;9.77;;;;;;;1.40;79.32;100214.16;4937430;28;20024;-71
2021/03/02 00:40:06;;;;;;;23.02;9.60;;;;;;;1.34;79.49;100213.91;4937268;28;20397;-71
2021/03/02 00:42:32;;;;;;;18.52;9.77;;;;;;;1.40;79.73;100212.50;4951264;28;20024;-71
2021/03/02 00:44:57;;;;;;;16.23;9.60;;;;;;;1.30;79.44;100215.44;4936251;28;20123;-66
2021/03/02 00:47:23;;;;;;;20.67;10.57;;;;;;;1.34;79.49;100213.91;4937171;28;20031;-66
2021/03/02 00:49:49;;;;;;;20.63;10.05;;;;;;;1.33;80.10;100209.59;4937441;28;20730;-71
2021/03/02 00:52:15;;;;;;;34.22;10.98;;;;;;;1.12;79.76;100207.91;4937018;28;20027;-69
2021/03/02 00:54:41;;;;;;;22.23;10.27;;;;;;;1.03;80.51;100212.59;4937323;28;20019;-66
2021/03/02 00:57:06;;;;;;;23.58;9.23;;;;;;;0.96;81.01;100215.69;4936939;29;20035;-66
2021/03/02 00:59:31;;;;;;;27.60;9.77;;;;;;;0.93;81.22;100211.34;4945177;29;20059;-70
2021/03/02 05:15:41;;;;;;;16.50;8.67;;;;;;;-0.71;88.86;100255.38;5792395;23;20182;-68
2021/03/02 05:18:06;;;;;;;17.83;9.00;;;;;;;-0.60;89.36;100261.88;4922759;28;20134;-68
2021/03/02 05:20:32;;;;;;;21.25;8.90;;;;;;;-0.54;89.44;100259.63;4923336;28;20027;-68
2021/03/02 05:22:57;;;;;;;18.83;8.65;;;;;;;-0.51;89.48;100257.25;4924321;28;20065;-68
2021/03/02 05:25:22;;;;;;;21.17;8.38;;;;;;;-0.46;89.29;100262.56;4923631;28;20027;-68
2021/03/02 05:27:48;;;;;;;15.73;8.32;;;;;;;-0.39;88.98;100255.28;4917447;28;20038;-69
2021/03/02 05:30:14;;;;;;;17.70;9.07;;;;;;;-0.40;89.36;100257.78;4943594;23;20055;-69
2021/03/02 05:32:39;;;;;;;19.60;8.60;;;;;;;-0.32;89.66;100252.28;4919166;29;20042;-70
2021/03/02 05:35:05;;;;;;;15.95;8.48;;;;;;;-0.18;89.89;100254.63;4912109;29;20040;-69
2021/03/02 05:37:30;;;;;;;17.75;9.50;;;;;;;-0.13;89.79;100255.72;4915013;29;20069;-70
2021/03/02 05:39:56;;;;;;;17.80;9.60;;;;;;;-0.16;89.45;100247.91;4891883;28;20145;-69
2021/03/02 05:42:21;;;;;;;16.20;9.23;;;;;;;-0.16;89.32;100253.00;4924137;28;21295;-69
2021/03/02 05:44:46;;;;;;;20.48;9.32;;;;;;;-0.20;89.38;100251.13;4923200;29;20040;-70
2021/03/02 05:47:12;;;;;;;24.50;8.93;;;;;;;-0.23;89.18;100258.63;4923130;29;20038;-69
2021/03/02 05:49:40;;;;;;;16.27;8.85;;;;;;;-0.19;89.22;100256.31;4924034;29;20032;-69
2021/03/02 05:52:06;;;;;;;17.65;9.32;;;;;;;-0.26;89.35;100252.56;4922235;28;20055;-69
2021/03/02 05:54:31;;;;;;;19.15;9.57;;;;;;;-0.21;89.40;100250.25;4924035;29;20405;-69
2021/03/02 05:56:57;;;;;;;24.92;11.27;;;;;;;-0.22;89.67;100260.38;4924305;29;20087;-69
2021/03/02 05:59:22;;;;;;;21.70;11.30;;;;;;;-0.21;89.66;100267.19;4926640;29;20078;-69
2021/03/02 06:01:48;;;;;;;20.23;10.10;;;;;;;-0.24;89.67;100259.41;4934745;29;20177;-69
2021/03/02 06:04:16;;;;;;;21.58;10.80;;;;;;;-0.27;89.49;100261.00;4927649;29;20043;-62
2021/03/02 06:06:42;;;;;;;20.02;9.77;;;;;;;-0.27;89.80;100261.00;4924766;29;20860;-62
2021/03/02 06:09:07;;;;;;;18.23;10.30;;;;;;;-0.26;89.63;100262.75;4922707;29;20400;-62
2021/03/02 06:11:35;;;;;;;16.75;9.55;;;;;;;-0.20;89.87;100266.38;4922393;29;20035;-62
2021/03/02 06:14:23;;;;;;;17.88;10.15;;;;;;;-0.15;89.86;100270.03;4924332;29;20051;-62
2021/03/02 06:16:50;;;;;;;16.98;10.23;;;;;;;-0.16;89.66;100268.28;4924657;29;20460;-62
2021/03/02 06:19:15;;;;;;;19.38;10.70;;;;;;;-0.16;89.59;100268.28;4921420;28;20441;-62
2021/03/02 06:21:42;;;;;;;19.48;10.20;;;;;;;-0.10;89.38;100271.13;4922868;28;21339;-62
2021/03/02 06:24:08;;;;;;;23.40;11.48;;;;;;;-0.06;89.09;100270.47;4923303;29;20036;-62
2021/03/02 06:26:36;;;;;;;19.85;10.57;;;;;;;-0.01;88.65;100274.13;4919058;28;20065;-62
2021/03/02 06:29:12;;;;;;;22.05;10.45;;;;;;;-0.05;88.44;100275.69;4920493;29;20036;-63
2021/03/02 06:31:45;;;;;;;25.65;10.75;;;;;;;-0.03;88.29;100268.09;4920298;29;20074;-62
2021/03/02 06:34:12;;;;;;;24.85;10.32;;;;;;;0.10;88.13;100278.09;4922019;29;20059;-62
2021/03/02 06:36:39;;;;;;;16.80;9.63;;;;;;;0.10;88.12;100275.53;4922590;29;20031;-62
2021/03/02 06:39:30;;;;;;;21.08;11.05;;;;;;;0.11;88.16;100274.72;4922335;29;20034;-62
2021/03/02 06:42:09;;;;;;;25.30;10.93;;;;;;;0.18;88.04;100286.94;4922250;28;20043;-62
2021/03/02 06:44:35;;;;;;;20.33;11.32;;;;;;;0.43;87.31;100283.00;4921958;28;20039;-62
2021/03/02 06:47:01;;;;;;;21.55;10.57;;;;;;;0.63;85.44;100292.47;4923150;29;20386;-62
2021/03/02 06:49:45;;;;;;;29.83;10.32;;;;;;;0.60;85.30;100291.44;4921713;29;20674;-64
2021/03/02 06:52:15;;;;;;;18.60;9.32;;;;;;;0.55;85.54;100298.88;4922888;29;20525;-62
2021/03/02 06:54:41;;;;;;;20.30;10.43;;;;;;;0.58;85.63;100293.94;4921322;29;20512;-62
2021/03/02 06:57:06;;;;;;;19.50;9.77;;;;;;;0.58;85.87;100298.13;4913484;29;20089;-68
2021/03/02 06:59:32;;;;;;;18.48;9.75;;;;;;;0.63;85.68;100302.69;4914168;29;20032;-68
2021/03/02 07:01:57;;;;;;;18.90;9.40;;;;;;;0.91;84.82;100293.72;4916030;29;20032;-68
2021/03/02 07:04:27;;;;;;;20.23;10.73;;;;;;;0.82;84.73;100298.38;4920827;29;20035;-68
2021/03/02 07:06:55;;;;;;;22.20;10.77;;;;;;;0.81;84.85;100301.75;4922947;29;20561;-68
2021/03/02 07:09:21;;;;;;;22.60;10.48;;;;;;;0.86;84.80;100307.94;4923015;29;20419;-68
2021/03/02 07:11:47;;;;;;;20.08;10.02;;;;;;;0.96;84.14;100312.66;4924775;28;20726;-68
2021/03/02 07:14:14;;;;;;;26.67;10.73;;;;;;;0.88;85.07;100311.44;4924713;28;20075;-68
2021/03/02 07:16:43;;;;;;;22.15;10.35;;;;;;;0.85;84.84;100317.28;4923814;29;20038;-68
2021/03/02 07:19:14;;;;;;;18.67;10.20;;;;;;;0.94;84.48;100320.25;4923885;29;20027;-68
2021/03/02 07:21:40;;;;;;;21.65;10.45;;;;;;;1.01;84.53;100324.81;4925213;29;20032;-68
2021/03/02 07:24:13;;;;;;;30.60;11.10;;;;;;;1.06;84.11;100330.13;4924979;29;20028;-68
2021/03/02 07:26:44;;;;;;;23.33;10.48;;;;;;;1.25;83.99;100322.47;4925843;28;20035;-68
2021/03/02 07:29:10;;;;;;;22.77;10.98;;;;;;;1.37;83.18;100322.16;4931947;29;20082;-68
2021/03/02 07:31:37;;;;;;;20.73;11.35;;;;;;;1.60;82.76;100322.28;4927219;29;20027;-68
2021/03/02 07:34:05;;;;;;;29.35;11.40;;;;;;;1.70;82.41;100320.19;4929297;29;20098;-68
2021/03/02 07:36:39;;;;;;;25.98;11.10;;;;;;;1.65;82.45;100313.13;4926253;29;20532;-68
2021/03/02 07:39:18;;;;;;;28.38;11.63;;;;;;;1.82;82.10;100316.38;4933181;29;20046;-68
2021/03/02 07:41:46;;;;;;;20.08;10.90;;;;;;;1.90;81.87;100320.13;4930491;29;20023;-68
2021/03/02 07:44:12;;;;;;;22.90;11.05;;;;;;;2.15;81.29;100322.00;4931784;29;20449;-68
2021/03/02 07:46:40;;;;;;;20.58;11.30;;;;;;;2.30;80.87;100323.50;4928517;28;20055;-68
2021/03/02 07:49:23;;;;;;;23.75;11.50;;;;;;;2.34;80.44;100326.19;4927515;29;20031;-68
2021/03/02 07:52:01;;;;;;;26.77;11.73;;;;;;;2.44;80.01;100320.63;4931316;29;21053;-70
2021/03/02 07:54:27;;;;;;;24.38;11.23;;;;;;;2.50;80.11;100331.06;4927405;29;20090;-70
2021/03/02 07:57:26;;;;;;;24.33;11.88;;;;;;;2.49;79.68;100329.34;4927814;29;20027;-70
2021/03/02 08:00:28;;;;;;;27.13;13.90;;;;;;;2.65;79.19;100331.66;4921706;29;20054;-70
2021/03/02 08:03:21;;;;;;;29.45;13.35;;;;;;;2.84;78.67;100329.00;4925959;29;20039;-70
2021/03/02 08:05:48;;;;;;;29.15;13.35;;;;;;;3.01;78.03;100321.09;4930642;29;20182;-70
2021/03/02 08:08:22;;;;;;;22.48;13.18;;;;;;;3.20;77.61;100320.97;4933051;29;20032;-70
2021/03/02 08:10:49;;;;;;;26.50;12.85;;;;;;;3.35;77.17;100313.81;4930243;29;20653;-70
2021/03/02 08:13:31;;;;;;;31.52;13.60;;;;;;;3.73;76.63;100311.72;4928552;29;20362;-70
2021/03/02 08:15:56;;;;;;;34.58;15.27;;;;;;;3.68;75.79;100320.94;4928563;28;20066;-70
2021/03/02 08:18:36;;;;;;;32.97;13.60;;;;;;;3.88;75.53;100316.50;4929219;29;20122;-70
2021/03/02 08:21:10;;;;;;;24.58;12.98;;;;;;;4.17;74.55;100320.03;4927743;28;20030;-70
2021/03/02 08:23:55;;;;;;;28.95;13.07;;;;;;;5.93;68.82;100313.16;4923350;28;20036;-70
2021/03/02 08:26:35;;;;;;;26.30;11.85;;;;;;;8.38;60.35;100302.75;4921453;28;20114;-70
2021/03/02 08:29:05;;;;;;;27.25;12.43;;;;;;;10.49;53.63;100304.25;4920158;29;20040;-70
2021/03/02 08:31:32;;;;;;;22.60;12.63;;;;;;;11.57;49.61;100290.94;4921601;29;20497;-71
2021/03/02 08:34:01;;;;;;;20.85;12.32;;;;;;;11.75;48.71;100291.00;4923095;29;20036;-71
2021/03/02 08:36:28;;;;;;;22.40;11.68;;;;;;;12.75;45.84;100293.56;4921854;29;20066;-71
2021/03/02 08:38:53;;;;;;;22.67;11.93;;;;;;;13.23;45.07;100291.72;4916951;29;20490;-71
2021/03/02 08:41:32;;;;;;;22.58;12.07;;;;;;;13.88;43.75;100298.28;4916561;29;20110;-71
2021/03/02 08:43:59;;;;;;;18.42;12.18;;;;;;;14.08;43.54;100296.41;4922001;29;20539;-71
2021/03/02 08:46:33;;;;;;;21.30;11.38;;;;;;;16.33;38.94;100298.03;4919884;29;20039;-71
2021/03/02 08:49:06;;;;;;;21.52;12.05;;;;;;;15.44;39.44;100301.97;4913740;29;20688;-71
2021/03/02 08:51:31;;;;;;;19.20;12.93;;;;;;;16.59;37.75;100290.59;4911217;29;20845;-71
2021/03/02 08:53:57;;;;;;;19.70;11.95;;;;;;;16.16;38.83;100299.19;4916708;29;20020;-72
2021/03/02 08:56:25;;;;;;;18.55;11.85;;;;;;;18.21;35.70;100289.75;4923061;28;20082;-71
2021/03/02 08:58:53;;;;;;;23.17;11.48;;;;;;;20.20;32.14;100286.66;4924289;29;20454;-71
2021/03/02 09:01:21;;;;;;;19.60;12.52;;;;;;;21.43;29.21;100284.97;4920444;28;20504;-72
2021/03/02 09:03:47;;;;;;;21.23;11.48;;;;;;;20.29;30.74;100299.50;4921679;29;20383;-71
2021/03/02 09:06:24;;;;;;;19.63;13.10;;;;;;;18.53;33.14;100295.97;4920866;29;20082;-71
2021/03/02 09:08:52;;;;;;;17.73;11.63;;;;;;;18.75;33.19;100293.63;4913676;29;20035;-72
2021/03/02 09:11:27;;;;;;;19.67;13.30;;;;;;;17.90;33.81;100299.28;4912878;29;20035;-71
2021/03/02 09:13:55;;;;;;;16.63;11.55;;;;;;;18.74;32.81;100292.78;4911306;29;20027;-71
2021/03/02 09:16:28;;;;;;;18.60;12.13;;;;;;;20.33;30.82;100283.63;4915478;29;20456;-71
2021/03/02 09:18:57;;;;;;;18.75;12.80;;;;;;;22.67;27.72;100283.41;4923179;29;20493;-70
2021/03/02 09:21:22;;;;;;;14.93;11.68;;;;;;;22.21;27.67;100295.09;4923284;29;20038;-70
2021/03/02 09:23:48;;;;;;;18.80;12.65;;;;;;;21.42;27.74;100299.94;4919565;28;20023;-70
2021/03/02 09:26:19;;;;;;;21.15;13.48;;;;;;;22.28;27.52;100296.53;4920952;29;20031;-70
2021/03/02 09:28:45;;;;;;;17.55;12.43;;;;;;;20.16;30.18;100306.13;4921151;29;20042;-70
2021/03/02 09:31:10;;;;;;;16.50;11.75;;;;;;;20.91;28.80;100302.69;4910904;29;20497;-70
2021/03/02 09:33:35;;;;;;;19.60;11.88;;;;;;;20.36;29.91;100299.31;4909541;29;20447;-70
2021/03/02 09:36:01;;;;;;;16.00;11.27;;;;;;;23.09;26.02;100291.25;4912656;28;20035;-70
2021/03/02 09:38:27;;;;;;;15.68;11.55;;;;;;;23.34;25.70;100290.97;4917278;29;20031;-70
2021/03/02 09:40:52;;;;;;;16.40;12.38;;;;;;;25.26;23.59;100284.94;4920677;29;20457;-70
2021/03/02 09:43:18;;;;;;;17.38;11.95;;;;;;;24.71;24.04;100287.84;4920628;28;20110;-70
2021/03/02 09:45:53;;;;;;;17.88;11.77;;;;;;;23.60;25.57;100294.22;4917312;29;20115;-70
2021/03/02 09:48:18;;;;;;;19.80;11.63;;;;;;;23.46;25.92;100288.72;4918843;29;20031;-70
2021/03/02 09:50:44;;;;;;;15.40;11.55;;;;;;;21.13;28.05;100295.75;4914919;29;20397;-70
2021/03/02 09:53:17;;;;;;;15.73;11.10;;;;;;;22.97;26.48;100285.69;4910390;29;20039;-70
2021/03/02 09:55:43;;;;;;;14.98;10.25;;;;;;;24.96;23.67;100283.91;4894075;29;20741;-70
2021/03/02 09:58:11;;;;;;;14.73;11.07;;;;;;;23.71;24.94;100288.44;4898577;28;20064;-70
2021/03/02 10:00:46;;;;;;;15.30;10.25;;;;;;;25.02;23.42;100280.91;4911177;29;20027;-68
2021/03/02 10:03:15;;;;;;;13.13;8.57;;;;;;;26.24;21.36;100290.03;4913509;28;20063;-68
2021/03/02 10:05:47;;;;;;;12.48;8.55;;;;;;;26.02;21.49;100286.94;4914037;29;20047;-67
2021/03/02 10:08:33;;;;;;;15.02;9.02;;;;;;;24.95;23.33;100274.22;4901865;29;20425;-68
2021/03/02 10:11:11;;;;;;;10.43;7.70;;;;;;;26.55;21.49;100283.81;4892613;29;20031;-68
2021/03/02 10:13:40;;;;;;;12.88;9.02;;;;;;;25.71;22.15;100279.81;4889926;29;20122;-68
2021/03/02 10:16:13;;;;;;;12.73;9.32;;;;;;;27.63;20.51;100272.66;4873484;29;20437;-62
2021/03/02 10:19:17;;;;;;;19.20;11.30;;;;;;;27.32;20.94;100269.31;4874836;29;20027;-62
2021/03/02 10:21:56;;;;;;;10.70;9.43;;;;;;;25.92;22.54;100280.41;4844774;28;20516;-62
2021/03/02 10:24:25;;;;;;;12.15;9.32;;;;;;;26.52;21.63;100273.34;4870488;29;20031;-63
2021/03/02 10:26:51;;;;;;;12.70;9.38;;;;;;;28.39;20.26;100272.97;4862539;29;20040;-63
2021/03/02 10:29:16;;;;;;;14.20;10.88;;;;;;;27.45;21.13;100279.16;4853340;29;20050;-62
2021/03/02 10:31:42;;;;;;;14.30;10.10;;;;;;;27.32;20.48;100282.63;4834799;29;20043;-62
2021/03/02 10:34:10;;;;;;;11.05;9.50;;;;;;;26.23;21.68;100285.66;4845473;28;20063;-63
2021/03/02 10:36:37;;;;;;;15.60;10.32;;;;;;;22.76;25.82;100292.72;4837359;29;20038;-69
2021/03/02 10:39:06;;;;;;;15.05;10.75;;;;;;;19.07;31.01;100298.00;4847162;29;20032;-62
2021/03/02 10:41:32;;;;;;;13.88;10.73;;;;;;;22.37;26.86;100279.44;4858441;29;20527;-63
2021/03/02 10:43:58;;;;;;;14.32;10.95;;;;;;;24.31;24.59;100284.53;4858075;28;20360;-63
2021/03/02 10:46:26;;;;;;;13.68;9.68;;;;;;;24.61;23.64;100276.00;4870810;29;20514;-62
2021/03/02 10:48:53;;;;;;;13.03;10.00;;;;;;;23.31;25.81;100274.41;4873091;29;24774;-62
2021/03/02 10:51:18;;;;;;;14.13;9.90;;;;;;;22.34;25.76;100275.16;4885251;28;20307;-68
2021/03/02 10:53:45;;;;;;;11.25;8.90;;;;;;;23.64;23.81;100271.97;4886155;28;20458;-64
2021/03/02 10:56:11;;;;;;;9.85;8.52;;;;;;;26.35;20.79;100263.69;4890043;29;20035;-69
2021/03/02 10:58:37;;;;;;;10.43;7.97;;;;;;;26.31;20.27;100269.28;4896543;29;20111;-63
2021/03/02 11:01:03;;;;;;;11.75;8.50;;;;;;;25.60;20.98;100268.00;4898943;29;20035;-64
2021/03/02 11:03:29;;;;;;;12.52;8.25;;;;;;;26.65;19.93;100270.81;4907048;28;20055;-67
2021/03/02 11:05:55;;;;;;;13.27;8.98;;;;;;;25.34;21.97;100266.81;4897217;29;20114;-69
2021/03/02 11:08:22;;;;;;;33.97;26.65;;;;;;;25.88;21.87;100272.63;4914939;29;20460;-67
2021/03/02 11:10:48;;;;;;;12.73;9.40;;;;;;;26.58;20.98;100266.78;4917000;29;20396;-67
2021/03/02 11:13:14;;;;;;;16.15;10.07;;;;;;;25.50;22.13;100260.63;4912952;29;20051;-63
2021/03/02 11:15:40;;;;;;;12.57;10.48;;;;;;;26.26;21.11;100261.56;4909955;28;20023;-63
2021/03/02 11:18:07;;;;;;;10.48;9.00;;;;;;;24.98;22.47;100258.16;4909644;29;20106;-63
2021/03/02 11:20:33;;;;;;;14.95;10.32;;;;;;;24.93;21.01;100254.88;4910311;28;20034;-69
2021/03/02 11:22:59;;;;;;;14.98;10.25;;;;;;;26.30;20.04;100252.47;4919033;28;20126;-63
2021/03/02 11:25:24;;;;;;;12.65;9.77;;;;;;;26.07;20.74;100259.16;4923329;29;20115;-63
2021/03/02 11:27:51;;;;;;;13.40;9.98;;;;;;;26.20;20.44;100258.41;4920727;29;20413;-64
2021/03/02 11:30:17;;;;;;;12.25;9.35;;;;;;;25.64;21.33;100242.13;4921874;29;20118;-67
2021/03/02 11:32:42;;;;;;;16.67;9.52;;;;;;;26.39;20.82;100241.28;4923710;29;20027;-64
2021/03/02 11:35:09;;;;;;;14.70;10.20;;;;;;;25.64;21.34;100236.81;4921383;29;20031;-64
2021/03/02 11:37:37;;;;;;;15.05;10.88;;;;;;;26.61;20.32;100230.25;4917466;29;20055;-68
2021/03/02 11:40:07;;;;;;;15.82;10.73;;;;;;;26.01;20.81;100237.38;4922010;28;20094;-63
2021/03/02 11:42:33;;;;;;;14.52;9.90;;;;;;;25.78;21.95;100234.28;4922557;28;20037;-63
2021/03/02 11:45:00;;;;;;;14.52;11.32;;;;;;;26.32;20.95;100229.31;4920740;29;20039;-63
2021/03/02 11:47:25;;;;;;;16.67;9.82;;;;;;;26.47;20.66;100226.72;4923667;29;20037;-66
2021/03/02 11:49:53;;;;;;;13.82;9.60;;;;;;;26.31;20.24;100227.59;4920417;29;20036;-68
2021/03/02 11:52:19;;;;;;;16.15;11.18;;;;;;;25.67;20.83;100223.34;4921092;29;20036;-66
2021/03/02 11:54:44;;;;;;;12.73;10.05;;;;;;;26.77;20.23;100214.19;4917479;29;20035;-66
2021/03/02 11:57:09;;;;;;;13.52;10.02;;;;;;;27.95;19.21;100214.63;4911193;28;20034;-67
2021/03/02 11:59:35;;;;;;;14.68;10.13;;;;;;;27.82;19.25;100208.41;4912923;29;20027;-69
2021/03/02 12:02:00;;;;;;;12.63;9.43;;;;;;;26.37;20.98;100211.28;4916933;28;20027;-63
2021/03/02 12:04:25;;;;;;;14.10;10.30;;;;;;;27.09;19.51;100206.03;4921199;29;20170;-69
2021/03/02 12:06:51;;;;;;;18.38;14.32;;;;;;;27.21;20.17;100205.25;4918740;28;20493;-63
2021/03/02 12:09:16;;;;;;;15.20;9.73;;;;;;;27.13;20.39;100196.91;4921899;29;20046;-67
2021/03/02 12:11:41;;;;;;;12.10;9.40;;;;;;;26.56;21.38;100202.22;4924194;28;20024;-63
2021/03/02 12:14:07;;;;;;;15.27;10.85;;;;;;;27.00;20.48;100196.78;4921802;28;20412;-69
2021/03/02 12:16:32;;;;;;;15.35;10.55;;;;;;;26.20;21.14;100207.91;4924711;29;20035;-67
2021/03/02 12:18:57;;;;;;;36.35;24.17;;;;;;;26.40;20.79;100205.78;4929694;28;20110;-69
2021/03/02 12:21:23;;;;;;;15.63;10.80;;;;;;;25.62;21.48;100206.84;4918753;29;20134;-63
2021/03/02 12:23:48;;;;;;;17.80;11.10;;;;;;;25.80;21.58;100205.81;4926667;29;20155;-63
2021/03/02 12:26:13;;;;;;;17.95;10.75;;;;;;;24.91;22.32;100203.75;4926905;29;20408;-63
2021/03/02 12:28:39;;;;;;;17.60;10.40;;;;;;;22.01;25.42;100203.47;4927000;29;20027;-69
2021/03/02 12:31:04;;;;;;;14.45;10.80;;;;;;;21.58;26.82;100205.25;4928726;28;20413;-63
2021/03/02 12:33:30;;;;;;;18.48;11.00;;;;;;;20.79;27.84;100196.84;4927026;28;20489;-63
2021/03/02 12:35:55;;;;;;;18.42;11.60;;;;;;;19.60;29.83;100198.31;4928319;28;20043;-65
2021/03/02 12:38:21;;;;;;;16.65;12.02;;;;;;;18.78;31.21;100203.44;4930088;29;20066;-67
2021/03/02 12:40:46;;;;;;;21.17;12.65;;;;;;;18.06;33.60;100200.09;4932093;29;20291;-63
2021/03/02 12:43:14;;;;;;;18.95;11.68;;;;;;;18.32;32.66;100197.63;4927039;29;20043;-68
2021/03/02 12:45:39;;;;;;;18.33;10.90;;;;;;;18.63;31.82;100186.31;4925843;29;20039;-68
2021/03/02 12:48:05;;;;;;;19.73;12.40;;;;;;;18.41;32.41;100186.88;4928307;28;20034;-66
2021/03/02 12:50:31;;;;;;;20.88;12.75;;;;;;;18.26;32.65;100192.56;4931847;28;20492;-66
2021/03/02 12:55:22;;;;;;;16.65;11.10;;;;;;;17.62;34.10;100189.78;5041121;28;20408;-67
2021/03/02 12:57:49;;;;;;;19.70;11.32;;;;;;;18.00;33.20;100195.88;5040945;28;20052;-63
2021/03/02 13:00:15;;;;;;;20.65;11.45;;;;;;;17.99;34.20;100188.91;5029091;28;20696;-63
2021/03/02 13:02:43;;;;;;;18.58;11.10;;;;;;;17.82;33.65;100189.31;5020088;28;20030;-62
2021/03/02 13:05:09;;;;;;;22.30;12.75;;;;;;;17.61;33.29;100193.31;5019407;28;20406;-64
2021/03/02 13:07:36;;;;;;;24.40;11.38;;;;;;;17.33;34.74;100184.38;5019540;28;20030;-63
2021/03/02 13:10:03;;;;;;;24.70;11.98;;;;;;;17.39;34.12;100181.59;5016416;28;20025;-69
2021/03/02 13:12:28;;;;;;;22.83;11.05;;;;;;;17.52;34.54;100188.28;5021009;28;20394;-64
2021/03/02 13:14:54;;;;;;;21.55;12.05;;;;;;;17.63;34.55;100173.16;5018592;28;20029;-62
2021/03/02 13:17:21;;;;;;;23.15;11.45;;;;;;;17.29;36.53;100180.09;5020634;28;20048;-64
2021/03/02 13:19:47;;;;;;;17.42;11.98;;;;;;;15.91;38.18;100173.22;5016076;28;20029;-70
2021/03/02 13:22:12;;;;;;;24.15;12.38;;;;;;;16.23;37.66;100163.91;5019325;28;20398;-68
2021/03/02 13:24:38;;;;;;;22.55;12.57;;;;;;;16.64;36.33;100165.75;5020010;28;20022;-66
2021/03/02 13:27:06;;;;;;;19.35;11.85;;;;;;;16.64;36.40;100163.13;5018352;28;20037;-62
2021/03/02 13:29:32;;;;;;;21.70;12.43;;;;;;;16.68;36.91;100161.28;5018964;28;20022;-62
2021/03/02 13:32:01;;;;;;;19.33;11.20;;;;;;;16.85;37.26;100158.38;5018969;28;20036;-62
2021/03/02 13:34:32;;;;;;;21.35;11.63;;;;;;;17.14;36.25;100158.59;5015640;28;20026;-65
2021/03/02 13:36:58;;;;;;;19.83;11.60;;;;;;;16.64;36.79;100160.50;5016268;28;20030;-62
2021/03/02 13:39:24;;;;;;;19.02;11.05;;;;;;;17.07;36.46;100164.88;5017504;28;20494;-61
2021/03/02 13:41:51;;;;;;;16.30;10.90;;;;;;;16.86;36.46;100157.47;5016358;28;20029;-67
2021/03/02 13:44:18;;;;;;;21.00;12.15;;;;;;;17.11;36.22;100155.16;5018551;28;20109;-68
2021/03/02 13:46:52;;;;;;;23.00;12.15;;;;;;;17.00;35.65;100157.16;5018899;28;20117;-69
2021/03/02 13:49:17;;;;;;;20.10;11.43;;;;;;;16.93;36.83;100156.44;5013689;28;20108;-63
2021/03/02 13:51:43;;;;;;;21.10;12.57;;;;;;;17.28;35.89;100152.19;5018478;28;20116;-63
2021/03/02 13:54:09;;;;;;;22.00;12.07;;;;;;;16.83;36.56;100147.06;5014503;28;20398;-62
2021/03/02 13:56:35;;;;;;;18.65;11.25;;;;;;;16.86;36.80;100149.59;5019746;28;20034;-62
2021/03/02 13:59:01;;;;;;;19.42;11.48;;;;;;;17.37;36.05;100146.72;5018416;28;20037;-62
2021/03/02 14:01:30;;;;;;;19.30;10.98;;;;;;;17.21;34.69;100143.56;5019505;28;20040;-67
2021/03/02 14:03:57;;;;;;;44.63;23.83;;;;;;;16.85;35.69;100142.66;5015479;28;20094;-62
2021/03/02 14:06:23;;;;;;;16.40;10.70;;;;;;;17.15;36.48;100139.34;5006738;28;20125;-62
2021/03/02 14:08:49;;;;;;;17.85;11.30;;;;;;;17.17;36.68;100140.19;5001768;28;20116;-62
2021/03/02 14:11:15;;;;;;;20.27;11.45;;;;;;;17.21;36.52;100141.84;5005692;28;20502;-68
2021/03/02 14:13:41;;;;;;;18.80;11.15;;;;;;;17.21;36.04;100147.09;5004780;28;20025;-68
2021/03/02 14:16:10;;;;;;;17.00;10.77;;;;;;;17.19;35.64;100151.47;5035350;28;20096;-62
2021/03/02 14:18:36;;;;;;;19.05;11.38;;;;;;;17.20;35.31;100149.72;5000336;28;20033;-62
2021/03/02 14:21:01;;;;;;;19.70;11.88;;;;;;;17.37;34.95;100144.97;4996305;28;20280;-68
2021/03/02 14:23:28;;;;;;;25.35;11.43;;;;;;;17.33;35.60;100142.44;4995726;28;20057;-62
2021/03/02 14:25:53;;;;;;;19.38;11.10;;;;;;;17.31;35.57;100146.84;4996138;28;20602;-68
2021/03/02 14:28:19;;;;;;;20.40;11.50;;;;;;;17.32;35.49;100149.44;4995728;28;20038;-69
2021/03/02 14:30:48;;;;;;;16.67;11.27;;;;;;;17.23;35.57;100144.41;4995034;28;20034;-62
2021/03/02 14:33:14;;;;;;;19.25;11.25;;;;;;;17.19;35.01;100146.25;4995836;28;20030;-62
2021/03/02 14:35:40;;;;;;;17.48;11.30;;;;;;;17.12;35.51;100134.19;4996760;28;20183;-69
2021/03/02 14:38:06;;;;;;;25.20;11.65;;;;;;;17.12;35.58;100130.72;4995548;28;20360;-62
2021/03/02 14:40:31;;;;;;;16.17;10.82;;;;;;;17.19;35.32;100135.75;4992115;28;20114;-61
2021/03/02 14:43:00;;;;;;;20.55;11.73;;;;;;;17.09;34.39;100126.41;4989358;28;20034;-62
2021/03/02 14:45:32;;;;;;;23.88;12.20;;;;;;;17.02;35.04;100140.53;4991417;28;20033;-62
2021/03/02 14:48:00;;;;;;;29.08;14.07;;;;;;;17.01;34.72;100136.16;4988240;28;20985;-68
2021/03/02 14:50:27;;;;;;;20.35;11.90;;;;;;;17.16;34.54;100137.59;4999697;28;20084;-68
2021/03/02 14:52:54;;;;;;;22.33;11.27;;;;;;;17.10;34.13;100128.13;5004248;28;20030;-63
2021/03/02 14:55:21;;;;;;;24.38;11.13;;;;;;;16.92;34.00;100136.38;5001564;28;20041;-68
2021/03/02 14:57:48;;;;;;;21.85;9.60;;;;;;;16.95;34.37;100128.47;5004616;28;20495;-63
2021/03/02 15:00:14;;;;;;;20.98;10.57;;;;;;;16.70;35.18;100123.72;5002043;28;20076;-63
2021/03/02 15:02:41;;;;;;;21.50;10.10;;;;;;;16.80;34.87;100118.34;5003143;28;20553;-63
2021/03/02 15:05:07;;;;;;;18.35;10.05;;;;;;;16.66;34.57;100122.06;5002390;28;20029;-63
2021/03/02 15:07:35;;;;;;;21.73;11.55;;;;;;;16.56;35.12;100115.31;4999662;28;20030;-69
2021/03/02 15:10:02;;;;;;;16.90;10.48;;;;;;;16.57;34.52;100127.50;4987635;28;20044;-68
2021/03/02 15:12:28;;;;;;;18.58;10.88;;;;;;;16.57;34.57;100124.88;4969941;28;20045;-63
2021/03/02 15:14:55;;;;;;;19.73;10.02;;;;;;;15.97;34.69;100119.97;4957838;28;20383;-63
2021/03/02 15:17:21;;;;;;;19.70;9.85;;;;;;;16.33;34.53;100122.75;4955625;28;20728;-63
2021/03/02 15:19:47;;;;;;;18.88;10.40;;;;;;;16.21;34.57;100126.50;4942541;28;20042;-63
2021/03/02 15:22:13;;;;;;;25.45;12.60;;;;;;;16.30;34.42;100120.22;4937594;28;20563;-63
2021/03/02 15:24:44;;;;;;;15.63;8.43;;;;;;;16.12;33.68;100119.69;4937055;28;20018;-62
2021/03/02 15:27:13;;;;;;;15.63;8.75;;;;;;;16.08;33.88;100118.00;4924718;28;20030;-63
2021/03/02 15:29:39;;;;;;;17.77;9.77;;;;;;;16.01;33.92;100116.41;4930027;28;20029;-63
2021/03/02 15:32:05;;;;;;;17.10;8.98;;;;;;;15.97;34.17;100109.50;4900906;28;20034;-63
2021/03/02 15:34:35;;;;;;;18.65;9.23;;;;;;;15.97;33.05;100106.91;4901208;28;20025;-68